createdAt,value
2022-10-10T06:15:12.829Z,6.04
2022-10-10T06:25:35.289Z,5.74
2022-10-10T06:35:12.944Z,5.84
2022-10-10T06:45:12.873Z,7.33
2022-10-10T06:55:12.851Z,7.81
2022-10-10T07:05:12.980Z,7.71
2022-10-10T07:15:12.870Z,8.25
2022-10-10T07:25:13.029Z,8.67
2022-10-10T07:35:12.956Z,8.50
2022-10-10T07:45:13.035Z,9.55
2022-10-10T07:55:13.028Z,9.74
2022-10-10T08:05:12.821Z,10.37
2022-10-10T08:15:13.045Z,9.89
2022-10-10T08:25:13.001Z,10.80
2022-10-10T08:35:13.069Z,10.95
2022-10-10T08:45:13.437Z,18.08
2022-10-10T08:55:13.308Z,17.65
2022-10-10T09:05:13.408Z,15.65
2022-10-10T09:15:13.347Z,14.64
2022-10-10T09:25:13.359Z,18.86
2022-10-10T09:35:13.460Z,16.84
2022-10-10T09:45:13.550Z,16.91
2022-10-10T09:55:13.599Z,16.59
2022-10-10T10:05:13.459Z,18.83
2022-10-10T10:15:13.369Z,17.37
2022-10-10T10:25:13.390Z,17.72
2022-10-10T10:35:13.328Z,15.94
2022-10-10T10:45:13.507Z,18.50
2022-10-10T10:55:13.495Z,13.85
2022-10-10T11:05:23.730Z,13.10
2022-10-10T11:15:13.478Z,15.25
2022-10-10T11:25:13.599Z,14.39
2022-10-10T11:35:13.413Z,13.57
2022-10-10T11:45:13.497Z,16.03
2022-10-10T11:55:13.536Z,14.88
2022-10-10T12:05:13.396Z,11.87
2022-10-10T12:15:13.479Z,12.95
2022-10-10T12:25:13.467Z,15.69
2022-10-10T12:35:13.608Z,11.58
2022-10-10T12:45:13.419Z,12.08
2022-10-10T12:55:13.465Z,13.17
2022-10-10T13:05:13.585Z,14.53
2022-10-10T13:15:13.568Z,14.65
2022-10-10T13:25:13.637Z,12.60
2022-10-10T13:35:13.670Z,10.95
2022-10-10T13:45:13.607Z,11.58
2022-10-10T13:55:13.536Z,14.55
2022-10-10T14:05:13.555Z,11.05
2022-10-10T14:15:13.715Z,13.65
2022-10-10T14:25:13.830Z,10.60
2022-10-10T14:35:13.556Z,14.60
2022-10-10T14:45:13.671Z,12.51
2022-10-10T14:55:13.562Z,7.70
2022-10-10T15:05:13.562Z,7.16
2022-10-10T15:15:13.766Z,6.95
2022-10-10T15:25:13.695Z,5.08
2022-10-10T15:35:13.716Z,5.77
2022-10-10T15:45:22.638Z,2.82
2022-10-10T15:55:13.717Z,2.50
2022-10-10T16:05:13.732Z,2.79
2022-10-10T16:15:13.757Z,3.90
2022-10-10T16:25:22.693Z,2.55
2022-10-10T16:35:13.637Z,3.44
2022-10-10T16:45:13.697Z,4.61
2022-10-10T16:55:13.722Z,4.63
2022-10-10T17:05:13.983Z,5.25
2022-10-10T17:15:13.707Z,15.61
2022-10-10T17:25:13.789Z,15.20
2022-10-10T17:35:13.746Z,18.77
2022-10-10T17:45:13.785Z,10.65
2022-10-10T17:55:13.901Z,10.83
2022-10-10T18:05:13.760Z,12.12
2022-10-10T18:15:13.803Z,8.90
2022-10-10T18:25:13.893Z,8.85
2022-10-10T18:35:13.714Z,10.54
2022-10-10T18:45:13.748Z,8.71
2022-10-10T18:55:17.540Z,9.19
2022-10-10T19:05:13.936Z,7.72
2022-10-10T19:15:13.965Z,7.75
